Terminal Aerodrome Forecast
Issued by NWS Wichita, KS

Home | Current Version | Previous Version | Graphics & Text | Print | Product List | Glossary On
Versions: 1 2 3 4 5 6 7 8 9 10 11 12 13 14 15 16 17 18 19 20 21 22 23 24
000
FTUS43 KICT 151720
TAFICT
TAF
KICT 151720Z 1518/1618 06006KT 4SM -DZ BR SCT005 OVC010
      TEMPO 1518/1521 2SM RA BR OVC005
     FM152300 06007KT 3SM RA SCT005 OVC010
      TEMPO 1601/1605 1SM RA BR OVC005
     FM160500 09007KT 2SM RA BR OVC005
     FM161600 VRB06KT 5SM BR SCT005 OVC015=

USA.gov is the U.S. government's official web portal to all federal, state and local government web resources and services.